Time;durP1;ratioP1;P1;durP2;ratioP2;P2;SDS_P1;SDS_P2;PMS_P1;PMS_P2;Temp;Humidity;BMP_temperature;BMP_pressure;BME280_temperature;BME280_humidity;BME280_pressure;Samples;Min_cycle;Max_cycle;Signal;HPM_P1;HPM_P2
2021/12/30 00:00:10;;;;;;;144.13;69.78;;;;;;;;;;5109578;27;20039;-66
2021/12/30 00:02:36;;;;;;;151.57;72.43;;;;;;;;;;5107656;27;20026;-66
2021/12/30 00:05:03;;;;;;;131.43;66.00;;;;;;;;;;5100742;28;20032;-69
2021/12/30 00:07:30;;;;;;;132.07;64.68;;;;;;;;;;5115012;28;20040;-68
2021/12/30 00:09:56;;;;;;;127.80;62.95;;;;;;;;;;5114200;28;20030;-67
2021/12/30 00:12:23;;;;;;;134.18;63.03;;;;;;;;;;5097263;28;20440;-68
2021/12/30 00:14:49;;;;;;;130.48;61.20;;;;;;;;;;5115495;28;20065;-68
2021/12/30 00:17:15;;;;;;;123.78;59.38;;;;;;;;;;5115498;28;20027;-67
2021/12/30 00:19:42;;;;;;;117.28;59.42;;;;;;;;;;5115423;28;20028;-67
2021/12/30 00:22:09;;;;;;;124.53;59.08;;;;;;;;;;5115433;28;20055;-67
2021/12/30 00:24:35;;;;;;;141.65;62.20;;;;;;;;;;5115334;28;20051;-68
2021/12/30 00:27:01;;;;;;;120.20;58.75;;;;;;;;;;5115273;28;20027;-67
2021/12/30 00:29:28;;;;;;;118.40;59.30;;;;;;;;;;5115167;28;20058;-68
2021/12/30 00:31:54;;;;;;;118.13;58.75;;;;;;;;;;5115211;28;20028;-67
2021/12/30 00:34:20;;;;;;;116.60;57.58;;;;;;;;;;5115141;28;20019;-67
2021/12/30 00:36:46;;;;;;;113.70;56.25;;;;;;;;;;5115075;28;20032;-70
2021/12/30 00:39:13;;;;;;;119.47;58.10;;;;;;;;;;5115086;28;20028;-68
2021/12/30 00:41:39;;;;;;;120.03;60.35;;;;;;;;;;5115291;28;20111;-68
2021/12/30 00:44:05;;;;;;;116.53;57.33;;;;;;;;;;5114947;28;20026;-67
2021/12/30 00:46:31;;;;;;;113.38;55.33;;;;;;;;;;5096668;28;20031;-67
2021/12/30 00:48:58;;;;;;;112.53;55.20;;;;;;;;;;5096474;28;20038;-67
2021/12/30 00:51:24;;;;;;;123.28;59.40;;;;;;;;;;5114922;28;20061;-66
2021/12/30 00:53:50;;;;;;;127.32;61.10;;;;;;;;;;5114992;28;20460;-66
2021/12/30 00:56:16;;;;;;;111.53;57.38;;;;;;;;;;5114691;28;20030;-67
2021/12/30 00:58:43;;;;;;;119.20;55.55;;;;;;;;;;5114673;28;20114;-66
2021/12/30 01:01:09;;;;;;;107.60;52.70;;;;;;;;;;5114650;28;20098;-66
2021/12/30 01:03:35;;;;;;;107.15;49.97;;;;;;;;;;5114643;28;20024;-66
2021/12/30 01:06:02;;;;;;;102.05;48.58;;;;;;;;;;5114294;28;20102;-66
2021/12/30 01:08:28;;;;;;;96.00;46.55;;;;;;;;;;5114441;28;20035;-66
2021/12/30 01:10:55;;;;;;;93.40;44.35;;;;;;;;;;5114483;28;20456;-67
2021/12/30 01:13:27;;;;;;;80.28;41.40;;;;;;;;;;5114723;28;20487;-66
2021/12/30 01:16:00;;;;;;;75.95;37.80;;;;;;;;;;5114446;28;20031;-68
2021/12/30 01:18:37;;;;;;;83.45;39.17;;;;;;;;;;5114374;28;20027;-68
2021/12/30 01:21:04;;;;;;;79.40;39.42;;;;;;;;;;5114018;28;20460;-67
2021/12/30 01:23:30;;;;;;;87.40;40.60;;;;;;;;;;5095923;28;20030;-67
2021/12/30 01:25:57;;;;;;;88.65;40.58;;;;;;;;;;5114153;28;20115;-66
2021/12/30 01:28:24;;;;;;;97.45;43.28;;;;;;;;;;5114065;28;20032;-67
2021/12/30 01:30:51;;;;;;;87.97;40.08;;;;;;;;;;5113768;28;20157;-66
2021/12/30 01:33:17;;;;;;;86.63;42.28;;;;;;;;;;5095795;28;20020;-69
2021/12/30 01:35:43;;;;;;;87.88;41.80;;;;;;;;;;5113978;28;20445;-68
2021/12/30 01:38:12;;;;;;;88.47;39.90;;;;;;;;;;5114206;28;20039;-70
2021/12/30 01:40:40;;;;;;;90.25;44.65;;;;;;;;;;5113879;28;20030;-69
2021/12/30 01:43:07;;;;;;;92.28;41.63;;;;;;;;;;5113864;28;20032;-68
2021/12/30 01:45:33;;;;;;;86.93;41.92;;;;;;;;;;5113814;28;20024;-68
2021/12/30 01:48:00;;;;;;;86.15;41.72;;;;;;;;;;5113797;28;20076;-69
2021/12/30 01:50:26;;;;;;;90.18;42.20;;;;;;;;;;5113779;28;20058;-69
2021/12/30 01:52:53;;;;;;;91.30;42.05;;;;;;;;;;5113828;28;20022;-68
2021/12/30 01:55:20;;;;;;;82.65;41.42;;;;;;;;;;5113750;28;20020;-68
2021/12/30 01:57:47;;;;;;;86.78;41.08;;;;;;;;;;5113689;28;20027;-67
2021/12/30 02:00:16;;;;;;;84.90;39.25;;;;;;;;;;5113638;28;20378;-69
2021/12/30 02:02:42;;;;;;;85.55;39.03;;;;;;;;;;5113650;28;20475;-67
2021/12/30 02:05:08;;;;;;;82.90;38.72;;;;;;;;;;5094854;28;20118;-67
2021/12/30 02:07:35;;;;;;;81.22;37.30;;;;;;;;;;5113516;28;20055;-68
2021/12/30 02:10:02;;;;;;;83.18;38.50;;;;;;;;;;5113795;28;20131;-68
2021/12/30 02:12:32;;;;;;;74.18;34.85;;;;;;;;;;5095229;28;20024;-68
2021/12/30 02:14:59;;;;;;;74.55;36.22;;;;;;;;;;5095148;28;20027;-67
2021/12/30 02:17:26;;;;;;;73.68;35.42;;;;;;;;;;5113123;28;20020;-69
2021/12/30 02:19:56;;;;;;;71.65;34.75;;;;;;;;;;5095150;28;20098;-68
2021/12/30 02:22:22;;;;;;;68.93;35.13;;;;;;;;;;5113452;28;20032;-68
2021/12/30 02:24:51;;;;;;;74.18;34.95;;;;;;;;;;5113355;28;20023;-69
2021/12/30 02:27:18;;;;;;;71.47;33.88;;;;;;;;;;5113335;28;20020;-69
2021/12/30 02:29:45;;;;;;;71.00;34.25;;;;;;;;;;5094938;28;20119;-68
2021/12/30 02:32:11;;;;;;;71.53;33.78;;;;;;;;;;5113392;28;20487;-69
2021/12/30 02:34:38;;;;;;;63.95;32.95;;;;;;;;;;5113314;28;20055;-69
2021/12/30 02:37:05;;;;;;;76.35;34.65;;;;;;;;;;5113324;28;20028;-69
2021/12/30 02:39:31;;;;;;;73.25;36.22;;;;;;;;;;5095008;28;20383;-68
2021/12/30 02:41:57;;;;;;;68.95;34.40;;;;;;;;;;5094702;28;20023;-68
2021/12/30 02:44:26;;;;;;;72.13;33.42;;;;;;;;;;5094925;28;20379;-68
2021/12/30 02:46:53;;;;;;;71.43;34.35;;;;;;;;;;5112862;28;20380;-68
2021/12/30 02:49:20;;;;;;;76.22;38.72;;;;;;;;;;5094899;28;20059;-68
2021/12/30 02:51:47;;;;;;;115.63;59.03;;;;;;;;;;5113144;28;20027;-67
2021/12/30 02:54:13;;;;;;;98.95;47.35;;;;;;;;;;5094866;28;20495;-69
2021/12/30 02:56:46;;;;;;;62.85;32.78;;;;;;;;;;5113134;28;20072;-69
2021/12/30 02:59:16;;;;;;;58.92;30.67;;;;;;;;;;5113134;28;20468;-68
2021/12/30 03:01:42;;;;;;;46.88;25.33;;;;;;;;;;5094749;28;20039;-68
2021/12/30 03:04:08;;;;;;;43.05;24.52;;;;;;;;;;5113089;28;20438;-68
2021/12/30 03:06:35;;;;;;;53.28;28.50;;;;;;;;;;5112657;28;20045;-68
2021/12/30 03:09:01;;;;;;;53.50;29.10;;;;;;;;;;5112921;28;20107;-68
2021/12/30 03:11:28;;;;;;;53.97;30.25;;;;;;;;;;5112991;28;20032;-69
2021/12/30 03:13:55;;;;;;;60.03;34.50;;;;;;;;;;5094686;28;20142;-68
2021/12/30 03:16:26;;;;;;;53.10;30.73;;;;;;;;;;5112901;28;20023;-68
2021/12/30 03:18:52;;;;;;;45.10;25.02;;;;;;;;;;5116797;28;20038;-69
2021/12/30 03:21:20;;;;;;;39.35;23.65;;;;;;;;;;5098325;28;20161;-68
2021/12/30 03:23:47;;;;;;;40.72;23.70;;;;;;;;;;5098269;28;20024;-67
2021/12/30 03:26:14;;;;;;;36.55;21.92;;;;;;;;;;5116510;28;20108;-66
2021/12/30 03:28:41;;;;;;;36.58;22.10;;;;;;;;;;5098012;28;20110;-68
2021/12/30 03:31:11;;;;;;;33.05;20.58;;;;;;;;;;5116431;28;20030;-67
2021/12/30 03:33:38;;;;;;;35.10;20.77;;;;;;;;;;5098074;28;20077;-68
2021/12/30 03:36:04;;;;;;;35.38;20.48;;;;;;;;;;5097981;28;20480;-69
2021/12/30 03:38:32;;;;;;;32.83;19.95;;;;;;;;;;5115993;28;20380;-67
2021/12/30 03:40:59;;;;;;;34.38;21.60;;;;;;;;;;5116493;28;20578;-68
2021/12/30 03:43:25;;;;;;;37.83;21.70;;;;;;;;;;5116482;28;20153;-67
2021/12/30 03:45:52;;;;;;;34.38;20.90;;;;;;;;;;5116139;28;20024;-68
2021/12/30 03:48:18;;;;;;;32.15;20.13;;;;;;;;;;5097734;28;20027;-67
2021/12/30 03:50:45;;;;;;;32.67;20.30;;;;;;;;;;5116287;28;20116;-67
2021/12/30 03:53:15;;;;;;;34.28;21.08;;;;;;;;;;5116065;28;20411;-66
2021/12/30 03:55:42;;;;;;;36.03;21.52;;;;;;;;;;5128216;27;20106;-66
2021/12/30 03:58:09;;;;;;;37.00;22.27;;;;;;;;;;5117838;27;20442;-66
2021/12/30 04:00:36;;;;;;;32.85;20.02;;;;;;;;;;5136599;27;20421;-66
2021/12/30 04:03:03;;;;;;;36.90;21.30;;;;;;;;;;5136289;27;20098;-67
2021/12/30 04:05:29;;;;;;;36.55;20.27;;;;;;;;;;5136225;27;20164;-66
2021/12/30 04:07:55;;;;;;;38.75;21.70;;;;;;;;;;5135617;27;20055;-66
2021/12/30 04:10:22;;;;;;;33.38;20.83;;;;;;;;;;5136092;27;20147;-67
2021/12/30 04:12:49;;;;;;;33.20;20.05;;;;;;;;;;5136060;27;20050;-66
2021/12/30 04:15:15;;;;;;;36.55;21.08;;;;;;;;;;5135979;27;20038;-65
2021/12/30 04:17:41;;;;;;;35.55;20.52;;;;;;;;;;5135739;27;20019;-66
2021/12/30 04:20:09;;;;;;;32.08;19.25;;;;;;;;;;5136153;27;20042;-66
2021/12/30 04:22:36;;;;;;;34.70;19.52;;;;;;;;;;5135879;27;20071;-66
2021/12/30 04:25:03;;;;;;;33.25;18.92;;;;;;;;;;5135901;27;20027;-66
2021/12/30 04:27:30;;;;;;;33.78;18.58;;;;;;;;;;5135731;27;20142;-66
2021/12/30 04:29:56;;;;;;;35.92;19.95;;;;;;;;;;5135672;27;20045;-65
2021/12/30 04:32:22;;;;;;;33.08;19.83;;;;;;;;;;5135680;27;20023;-66
2021/12/30 04:34:48;;;;;;;34.88;20.25;;;;;;;;;;5117214;27;20125;-66
2021/12/30 04:37:14;;;;;;;34.28;20.05;;;;;;;;;;5135597;27;20031;-65
2021/12/30 04:39:41;;;;;;;39.28;23.17;;;;;;;;;;5135496;27;20527;-66
2021/12/30 04:42:07;;;;;;;33.83;20.20;;;;;;;;;;5135354;27;20026;-66
2021/12/30 04:44:33;;;;;;;32.65;20.15;;;;;;;;;;5135502;27;20019;-66
2021/12/30 04:47:00;;;;;;;30.85;18.42;;;;;;;;;;5135422;27;20062;-65
2021/12/30 04:49:26;;;;;;;33.15;18.88;;;;;;;;;;5135315;27;20030;-66
2021/12/30 04:51:53;;;;;;;32.10;19.92;;;;;;;;;;5116547;27;20034;-66
2021/12/30 04:54:20;;;;;;;31.40;18.33;;;;;;;;;;5116803;27;20047;-65
2021/12/30 04:56:46;;;;;;;35.05;17.85;;;;;;;;;;5134983;27;20106;-64
2021/12/30 04:59:12;;;;;;;33.05;20.23;;;;;;;;;;5135175;27;20027;-64
2021/12/30 05:01:39;;;;;;;36.63;20.40;;;;;;;;;;5135375;27;20110;-65
2021/12/30 05:04:05;;;;;;;36.55;20.65;;;;;;;;;;5116529;27;20433;-65
2021/12/30 05:06:34;;;;;;;33.55;20.02;;;;;;;;;;5134626;27;20460;-65
2021/12/30 05:09:00;;;;;;;36.75;21.23;;;;;;;;;;5134866;27;20422;-65
2021/12/30 05:11:26;;;;;;;42.30;24.30;;;;;;;;;;5134880;27;20115;-64
2021/12/30 05:13:52;;;;;;;42.10;24.15;;;;;;;;;;5134910;27;20550;-66
2021/12/30 05:16:19;;;;;;;49.53;27.48;;;;;;;;;;5134718;27;20023;-66
2021/12/30 05:18:46;;;;;;;50.50;26.25;;;;;;;;;;5134470;27;20552;-66
2021/12/30 05:21:12;;;;;;;47.03;26.52;;;;;;;;;;5134747;27;20440;-66
2021/12/30 05:23:39;;;;;;;48.45;27.33;;;;;;;;;;5134588;27;20026;-67
2021/12/30 05:26:05;;;;;;;54.20;29.52;;;;;;;;;;5134951;27;20106;-66
2021/12/30 05:28:31;;;;;;;48.83;27.48;;;;;;;;;;5134614;27;20087;-66
2021/12/30 05:30:58;;;;;;;50.53;30.05;;;;;;;;;;5134614;27;20030;-64
2021/12/30 05:33:24;;;;;;;52.80;30.50;;;;;;;;;;5134593;27;20471;-65
2021/12/30 05:35:50;;;;;;;49.95;27.65;;;;;;;;;;5134553;27;20038;-65
2021/12/30 05:38:17;;;;;;;51.30;27.08;;;;;;;;;;5134514;27;20031;-64
2021/12/30 05:40:43;;;;;;;53.17;29.38;;;;;;;;;;5133534;27;20042;-65
2021/12/30 05:43:10;;;;;;;59.10;30.67;;;;;;;;;;5134698;27;20114;-64
2021/12/30 05:45:36;;;;;;;62.17;32.03;;;;;;;;;;5116026;27;20383;-65
2021/12/30 05:48:03;;;;;;;65.10;33.53;;;;;;;;;;5134522;27;20522;-66
2021/12/30 05:50:33;;;;;;;76.90;37.05;;;;;;;;;;5134428;27;20027;-66
2021/12/30 05:52:59;;;;;;;75.40;39.75;;;;;;;;;;5115853;27;20057;-65
2021/12/30 05:55:25;;;;;;;69.40;38.90;;;;;;;;;;5134484;27;20031;-66
2021/12/30 05:57:54;;;;;;;68.95;38.80;;;;;;;;;;5134140;27;20099;-65
2021/12/30 06:00:21;;;;;;;68.18;36.00;;;;;;;;;;5115692;27;20031;-65
2021/12/30 06:02:47;;;;;;;67.38;38.13;;;;;;;;;;5134192;27;20399;-65
2021/12/30 06:05:14;;;;;;;69.72;36.10;;;;;;;;;;5134157;27;20019;-65
2021/12/30 06:07:40;;;;;;;69.10;38.15;;;;;;;;;;5114992;27;20392;-65
2021/12/30 06:10:08;;;;;;;60.30;33.30;;;;;;;;;;5133631;27;20047;-66
2021/12/30 06:12:35;;;;;;;55.97;31.92;;;;;;;;;;5115485;28;20109;-64
2021/12/30 06:15:01;;;;;;;59.22;32.38;;;;;;;;;;5131494;28;20383;-64
2021/12/30 06:17:27;;;;;;;58.13;31.33;;;;;;;;;;5114734;28;20031;-64
2021/12/30 06:19:54;;;;;;;55.83;31.42;;;;;;;;;;5133809;28;20110;-64
2021/12/30 06:22:20;;;;;;;66.47;34.67;;;;;;;;;;5133875;28;20042;-64
2021/12/30 06:24:46;;;;;;;61.85;33.67;;;;;;;;;;5115435;28;20390;-64
2021/12/30 06:27:13;;;;;;;69.05;36.35;;;;;;;;;;5115186;28;20037;-65
2021/12/30 06:29:39;;;;;;;66.82;33.83;;;;;;;;;;5115173;28;20494;-64
2021/12/30 06:32:06;;;;;;;66.15;34.85;;;;;;;;;;5133690;28;20027;-65
2021/12/30 06:34:33;;;;;;;70.03;36.25;;;;;;;;;;5133752;28;20487;-65
2021/12/30 06:36:59;;;;;;;69.35;34.17;;;;;;;;;;5133624;28;20023;-64
2021/12/30 06:39:25;;;;;;;74.18;35.25;;;;;;;;;;5133663;28;20124;-65
2021/12/30 06:41:51;;;;;;;77.28;37.25;;;;;;;;;;5133146;28;20023;-64
2021/12/30 06:44:17;;;;;;;71.05;34.60;;;;;;;;;;5133126;28;20417;-64
2021/12/30 06:46:52;;;;;;;66.15;34.03;;;;;;;;;;5133522;28;20165;-64
2021/12/30 06:49:18;;;;;;;85.38;43.65;;;;;;;;;;5133268;28;20027;-64
2021/12/30 06:51:44;;;;;;;109.97;58.90;;;;;;;;;;5135779;27;20064;-64
2021/12/30 06:54:11;;;;;;;129.75;70.18;;;;;;;;;;5137528;27;20047;-64
2021/12/30 06:56:37;;;;;;;160.75;90.95;;;;;;;;;;5137538;27;20037;-64
2021/12/30 06:59:04;;;;;;;147.40;87.45;;;;;;;;;;5118936;27;20065;-63
2021/12/30 07:01:30;;;;;;;118.88;70.80;;;;;;;;;;5137436;27;20080;-64
2021/12/30 07:03:57;;;;;;;74.00;44.65;;;;;;;;;;5137140;27;20442;-64
2021/12/30 07:06:23;;;;;;;49.40;30.10;;;;;;;;;;5118464;27;20089;-63
2021/12/30 07:08:49;;;;;;;57.85;37.42;;;;;;;;;;5118805;27;20084;-66
2021/12/30 07:11:16;;;;;;;58.38;34.38;;;;;;;;;;5137357;27;20483;-66
2021/12/30 07:13:42;;;;;;;62.70;35.83;;;;;;;;;;5137252;27;20077;-66
2021/12/30 07:16:09;;;;;;;60.60;34.85;;;;;;;;;;5137232;27;20464;-66
2021/12/30 07:18:35;;;;;;;53.20;30.23;;;;;;;;;;5137179;27;20034;-65
2021/12/30 07:21:01;;;;;;;44.05;24.95;;;;;;;;;;5137110;27;20469;-66
2021/12/30 07:23:27;;;;;;;50.42;26.90;;;;;;;;;;5137033;27;20028;-67
2021/12/30 07:25:53;;;;;;;50.85;29.48;;;;;;;;;;5137105;27;20456;-65
2021/12/30 07:28:20;;;;;;;55.13;31.77;;;;;;;;;;5118678;27;20375;-65
2021/12/30 07:30:46;;;;;;;64.88;35.03;;;;;;;;;;5136939;27;20035;-65
2021/12/30 07:33:12;;;;;;;60.45;33.97;;;;;;;;;;5137395;27;20055;-66
2021/12/30 07:35:38;;;;;;;52.80;28.67;;;;;;;;;;5136822;27;20471;-67
2021/12/30 07:38:05;;;;;;;47.72;26.52;;;;;;;;;;5136796;27;20031;-67
2021/12/30 07:40:32;;;;;;;52.13;29.63;;;;;;;;;;5136668;27;20030;-70
2021/12/30 07:42:59;;;;;;;65.13;40.50;;;;;;;;;;5136487;27;20019;-71
2021/12/30 07:45:25;;;;;;;55.97;30.38;;;;;;;;;;5118137;27;20035;-72
2021/12/30 07:47:53;;;;;;;55.03;30.55;;;;;;;;;;5136432;27;20031;-70
2021/12/30 07:50:19;;;;;;;54.25;32.13;;;;;;;;;;5136336;27;20027;-70
2021/12/30 07:52:46;;;;;;;56.72;29.75;;;;;;;;;;5136458;27;20168;-70
2021/12/30 07:55:13;;;;;;;47.30;28.88;;;;;;;;;;5136225;27;20023;-70
2021/12/30 07:57:40;;;;;;;49.08;27.20;;;;;;;;;;5136394;27;20098;-71
2021/12/30 08:00:09;;;;;;;72.80;43.08;;;;;;;;;;5117837;27;20479;-69
2021/12/30 08:02:35;;;;;;;76.38;45.88;;;;;;;;;;5135625;27;20031;-68
2021/12/30 08:05:01;;;;;;;61.22;29.88;;;;;;;;;;5136301;27;20027;-70
2021/12/30 08:07:27;;;;;;;49.30;28.42;;;;;;;;;;5117257;27;20104;-65
2021/12/30 08:09:54;;;;;;;52.17;31.08;;;;;;;;;;5136045;27;20062;-67
2021/12/30 08:12:21;;;;;;;50.45;29.05;;;;;;;;;;5136052;27;20378;-67
2021/12/30 08:14:47;;;;;;;43.05;23.55;;;;;;;;;;5135724;27;20463;-67
2021/12/30 08:17:13;;;;;;;40.15;21.80;;;;;;;;;;5135845;27;20376;-70
2021/12/30 08:19:39;;;;;;;41.30;22.17;;;;;;;;;;5136063;27;20102;-68
2021/12/30 08:22:05;;;;;;;33.30;19.85;;;;;;;;;;5117470;27;20031;-70
2021/12/30 08:24:32;;;;;;;39.28;22.90;;;;;;;;;;5135856;27;20031;-68
2021/12/30 08:27:01;;;;;;;40.13;22.67;;;;;;;;;;5117365;27;20023;-70
2021/12/30 08:29:31;;;;;;;36.15;21.33;;;;;;;;;;5135714;27;20023;-68
2021/12/30 08:31:57;;;;;;;38.25;19.73;;;;;;;;;;5135684;27;20077;-69
2021/12/30 08:34:24;;;;;;;49.00;26.83;;;;;;;;;;5135376;27;20429;-69
2021/12/30 08:36:50;;;;;;;104.28;47.90;;;;;;;;;;5133603;27;20452;-68
2021/12/30 08:39:16;;;;;;;79.38;39.45;;;;;;;;;;5096627;28;20030;-69
2021/12/30 08:41:42;;;;;;;68.72;35.20;;;;;;;;;;5096663;28;20078;-67
2021/12/30 08:44:08;;;;;;;50.58;27.27;;;;;;;;;;5114965;28;20024;-68
2021/12/30 08:46:35;;;;;;;37.97;20.63;;;;;;;;;;5096515;28;20468;-68
2021/12/30 08:49:01;;;;;;;37.72;22.08;;;;;;;;;;5114575;28;20118;-68
2021/12/30 08:51:27;;;;;;;35.97;20.33;;;;;;;;;;5096324;28;20116;-68
2021/12/30 08:53:54;;;;;;;35.92;20.55;;;;;;;;;;5114904;28;20173;-68
2021/12/30 08:56:20;;;;;;;38.85;21.45;;;;;;;;;;5116271;27;20384;-65
2021/12/30 08:58:48;;;;;;;41.38;23.45;;;;;;;;;;5095810;28;20031;-65
2021/12/30 09:01:14;;;;;;;34.72;21.10;;;;;;;;;;5117755;27;20019;-66
2021/12/30 09:03:40;;;;;;;35.42;20.77;;;;;;;;;;5134953;27;20027;-65
2021/12/30 09:06:07;;;;;;;35.55;21.27;;;;;;;;;;5116176;27;20045;-66
2021/12/30 09:08:33;;;;;;;31.55;19.38;;;;;;;;;;5135071;27;20062;-65
2021/12/30 09:10:59;;;;;;;46.58;25.15;;;;;;;;;;5134839;27;20033;-64
2021/12/30 09:13:26;;;;;;;31.13;17.27;;;;;;;;;;5134883;27;20035;-68
2021/12/30 09:15:52;;;;;;;28.42;15.32;;;;;;;;;;5115220;27;20052;-66
2021/12/30 09:18:19;;;;;;;31.85;17.50;;;;;;;;;;5134784;27;20084;-66
2021/12/30 09:20:45;;;;;;;31.45;16.70;;;;;;;;;;5134630;27;20024;-67
2021/12/30 09:23:12;;;;;;;25.23;15.20;;;;;;;;;;5134062;27;20059;-67
2021/12/30 09:25:39;;;;;;;26.75;15.45;;;;;;;;;;5134730;27;20031;-66
2021/12/30 09:28:07;;;;;;;29.17;16.85;;;;;;;;;;5115980;27;20562;-66
2021/12/30 09:30:34;;;;;;;32.95;18.95;;;;;;;;;;5134489;27;20015;-66
2021/12/30 09:33:01;;;;;;;33.67;22.42;;;;;;;;;;5116010;27;20019;-66
2021/12/30 09:35:28;;;;;;;36.22;20.38;;;;;;;;;;5134381;27;20094;-66
2021/12/30 09:37:54;;;;;;;30.38;17.83;;;;;;;;;;5134747;27;20156;-66
2021/12/30 09:40:21;;;;;;;36.97;20.05;;;;;;;;;;5134287;27;20387;-66
2021/12/30 09:42:51;;;;;;;33.88;19.75;;;;;;;;;;5120284;27;20058;-71
2021/12/30 09:45:17;;;;;;;33.72;19.20;;;;;;;;;;5122998;27;20027;-70
2021/12/30 09:47:47;;;;;;;33.92;20.83;;;;;;;;;;5129811;27;20368;-69
2021/12/30 09:50:14;;;;;;;28.55;19.13;;;;;;;;;;5132449;27;20462;-68
2021/12/30 09:52:40;;;;;;;35.72;26.92;;;;;;;;;;5133985;27;20411;-65
2021/12/30 09:55:06;;;;;;;33.25;20.38;;;;;;;;;;5115511;27;20019;-70
2021/12/30 09:57:32;;;;;;;33.33;20.92;;;;;;;;;;5134318;27;20030;-65
2021/12/30 09:59:59;;;;;;;33.72;22.35;;;;;;;;;;5133941;27;20142;-71
2021/12/30 10:02:25;;;;;;;32.10;18.42;;;;;;;;;;5133454;27;20071;-68
2021/12/30 10:05:11;;;;;;;28.30;17.40;;;;;;;;;;5114950;27;20019;-74
2021/12/30 10:07:39;;;;;;;37.47;24.45;;;;;;;;;;5133259;27;20134;-66
2021/12/30 10:10:26;;;;;;;30.10;18.70;;;;;;;;;;5114877;27;20442;-65
2021/12/30 10:12:52;;;;;;;40.65;23.27;;;;;;;;;;5115045;28;20027;-65
2021/12/30 10:15:25;;;;;;;47.58;24.98;;;;;;;;;;5133398;28;20042;-65
2021/12/30 10:17:58;;;;;;;25.90;17.55;;;;;;;;;;5133548;28;20024;-65
2021/12/30 10:20:37;;;;;;;29.17;17.58;;;;;;;;;;5114865;28;20035;-64
2021/12/30 10:23:15;;;;;;;28.27;17.50;;;;;;;;;;5133214;27;20020;-64
2021/12/30 10:25:42;;;;;;;38.60;21.85;;;;;;;;;;5134319;27;20033;-63
2021/12/30 10:28:24;;;;;;;33.40;17.73;;;;;;;;;;5137723;27;20054;-64
2021/12/30 10:30:55;;;;;;;32.30;19.55;;;;;;;;;;5137984;27;20088;-64
2021/12/30 10:33:23;;;;;;;31.05;18.13;;;;;;;;;;5119299;27;20543;-63
2021/12/30 10:35:50;;;;;;;29.05;18.13;;;;;;;;;;5137480;27;20072;-65
2021/12/30 10:38:16;;;;;;;41.40;22.90;;;;;;;;;;5137797;27;20106;-65
2021/12/30 10:40:47;;;;;;;45.40;25.13;;;;;;;;;;5119335;27;20371;-65
2021/12/30 10:43:23;;;;;;;35.45;17.85;;;;;;;;;;5137659;27;20031;-67
2021/12/30 10:46:03;;;;;;;26.38;17.73;;;;;;;;;;5137591;27;20532;-68
2021/12/30 10:48:29;;;;;;;26.92;18.10;;;;;;;;;;5137558;27;20023;-67
2021/12/30 10:51:15;;;;;;;28.80;18.40;;;;;;;;;;5118926;27;20543;-67
2021/12/30 10:53:42;;;;;;;28.63;18.23;;;;;;;;;;5118545;27;20027;-67
2021/12/30 10:56:29;;;;;;;24.73;17.33;;;;;;;;;;5117537;27;20118;-67
2021/12/30 10:59:07;;;;;;;31.55;20.55;;;;;;;;;;5137545;27;20047;-67
2021/12/30 11:01:37;;;;;;;36.55;22.60;;;;;;;;;;5137606;27;20015;-67
2021/12/30 11:04:03;;;;;;;65.88;39.85;;;;;;;;;;5136971;27;20031;-67
2021/12/30 11:06:30;;;;;;;26.00;18.20;;;;;;;;;;5136788;27;20122;-67
2021/12/30 11:09:23;;;;;;;33.03;21.42;;;;;;;;;;5118488;27;20468;-67
2021/12/30 11:11:51;;;;;;;34.25;20.05;;;;;;;;;;5132226;27;20514;-67
2021/12/30 11:14:19;;;;;;;33.92;21.85;;;;;;;;;;5136562;27;20483;-68
2021/12/30 11:17:18;;;;;;;41.35;24.70;;;;;;;;;;5136738;27;20435;-67
2021/12/30 11:19:49;;;;;;;31.73;19.33;;;;;;;;;;5033395;28;20041;-67
2021/12/30 11:22:21;;;;;;;28.60;20.10;;;;;;;;;;5033558;28;20033;-67
2021/12/30 11:24:47;;;;;;;;;;;;;;;;;;5033621;28;20490;-67
2021/12/30 11:27:15;;;;;;;29.70;18.35;;;;;;;;;;5033359;28;19916;-67
2021/12/30 11:29:43;;;;;;;35.17;21.45;;;;;;;;;;5033114;28;20042;-67
2021/12/30 11:32:10;;;;;;;37.95;23.08;;;;;;;;;;5032825;28;20038;-70
2021/12/30 11:34:36;;;;;;;30.17;20.00;;;;;;;;;;5015851;28;20021;-66
2021/12/30 11:37:03;;;;;;;43.40;25.48;;;;;;;;;;5032050;28;20034;-68
2021/12/30 11:39:30;;;;;;;42.92;29.15;;;;;;;;;;5016139;28;20069;-67
2021/12/30 11:41:58;;;;;;;40.05;26.25;;;;;;;;;;5016498;28;20585;-68
2021/12/30 11:44:35;;;;;;;70.68;41.33;;;;;;;;;;5016095;28;20037;-68
2021/12/30 11:47:02;;;;;;;29.92;21.35;;;;;;;;;;5030630;28;20029;-68
2021/12/30 11:49:48;;;;;;;41.13;25.67;;;;;;;;;;5031976;28;20486;-67
2021/12/30 11:52:34;;;;;;;33.20;21.42;;;;;;;;;;5014473;28;20124;-68
2021/12/30 11:55:00;;;;;;;40.15;25.48;;;;;;;;;;5023074;27;20035;-67
2021/12/30 11:57:28;;;;;;;33.70;21.05;;;;;;;;;;5136495;27;20152;-68
2021/12/30 11:59:55;;;;;;;37.83;22.60;;;;;;;;;;5136424;27;20059;-67
2021/12/30 12:02:32;;;;;;;35.50;22.00;;;;;;;;;;5136355;27;20054;-67
2021/12/30 12:04:58;;;;;;;33.60;21.02;;;;;;;;;;5136358;27;20022;-68
2021/12/30 12:07:24;;;;;;;41.00;22.67;;;;;;;;;;5135862;27;20499;-68
2021/12/30 12:09:51;;;;;;;36.05;22.83;;;;;;;;;;5136156;27;20027;-68
2021/12/30 12:12:32;;;;;;;37.33;23.55;;;;;;;;;;5117730;27;20035;-67
2021/12/30 12:15:03;;;;;;;36.17;22.83;;;;;;;;;;5136115;27;20027;-68
2021/12/30 12:17:37;;;;;;;33.42;21.63;;;;;;;;;;5135948;27;20019;-67
2021/12/30 12:20:15;;;;;;;32.10;19.50;;;;;;;;;;5117478;27;20131;-68
2021/12/30 12:22:41;;;;;;;33.95;20.67;;;;;;;;;;5117498;27;20027;-68
2021/12/30 12:25:08;;;;;;;34.65;20.15;;;;;;;;;;5136208;27;20027;-67
2021/12/30 12:27:36;;;;;;;28.10;19.25;;;;;;;;;;5135673;27;20098;-68
2021/12/30 12:30:04;;;;;;;32.83;20.65;;;;;;;;;;5135657;27;20034;-68
2021/12/30 12:32:30;;;;;;;35.70;21.05;;;;;;;;;;5135420;27;20102;-67
2021/12/30 12:34:59;;;;;;;45.78;26.05;;;;;;;;;;5135811;27;20102;-67
2021/12/30 12:37:32;;;;;;;30.80;19.27;;;;;;;;;;5135586;27;20084;-67
2021/12/30 12:40:01;;;;;;;29.92;19.00;;;;;;;;;;5135609;27;20083;-68
2021/12/30 12:42:46;;;;;;;37.00;22.65;;;;;;;;;;5135530;27;20482;-68
2021/12/30 12:45:32;;;;;;;34.30;21.40;;;;;;;;;;5135465;27;20019;-67
2021/12/30 12:48:23;;;;;;;37.13;21.60;;;;;;;;;;5082553;27;20035;-67
2021/12/30 12:50:49;;;;;;;34.25;20.92;;;;;;;;;;5134086;27;20080;-66
2021/12/30 12:53:24;;;;;;;38.60;21.73;;;;;;;;;;5115884;27;20031;-67
2021/12/30 12:55:52;;;;;;;43.13;24.75;;;;;;;;;;5135244;27;20022;-67
2021/12/30 12:58:19;;;;;;;50.03;28.45;;;;;;;;;;5135264;27;20022;-68
2021/12/30 13:00:45;;;;;;;38.58;26.23;;;;;;;;;;5135171;27;20099;-67
2021/12/30 13:03:12;;;;;;;45.00;26.45;;;;;;;;;;5135149;27;20026;-68
2021/12/30 13:05:51;;;;;;;38.75;25.77;;;;;;;;;;5135039;27;20024;-67
2021/12/30 13:08:17;;;;;;;44.78;27.65;;;;;;;;;;5135189;27;20043;-67
2021/12/30 13:10:43;;;;;;;54.20;29.77;;;;;;;;;;5116495;27;20106;-67
2021/12/30 13:13:10;;;;;;;44.83;27.92;;;;;;;;;;5134881;27;20058;-68
2021/12/30 13:15:40;;;;;;;40.80;27.02;;;;;;;;;;5116382;27;20490;-67
2021/12/30 13:18:15;;;;;;;45.75;28.48;;;;;;;;;;5134893;27;20031;-67
2021/12/30 13:20:44;;;;;;;46.30;28.00;;;;;;;;;;5135038;27;20163;-67
2021/12/30 13:23:12;;;;;;;51.47;32.28;;;;;;;;;;5134690;27;20055;-67
2021/12/30 13:25:38;;;;;;;54.40;32.90;;;;;;;;;;5132602;27;20026;-67
2021/12/30 13:28:04;;;;;;;42.35;26.13;;;;;;;;;;5122296;27;20034;-67
2021/12/30 13:30:31;;;;;;;41.33;24.98;;;;;;;;;;5095973;28;20059;-68
2021/12/30 13:32:57;;;;;;;39.47;24.20;;;;;;;;;;5113993;28;20022;-69
2021/12/30 13:35:31;;;;;;;47.00;27.92;;;;;;;;;;5095577;28;20440;-68
2021/12/30 13:38:02;;;;;;;47.30;29.52;;;;;;;;;;5113854;28;20469;-70
2021/12/30 13:40:29;;;;;;;78.20;45.40;;;;;;;;;;5095559;28;20023;-66
2021/12/30 13:42:56;;;;;;;48.83;30.40;;;;;;;;;;5113557;28;20472;-67
2021/12/30 13:45:29;;;;;;;41.15;25.88;;;;;;;;;;5114054;28;20102;-69
2021/12/30 13:48:04;;;;;;;39.97;24.10;;;;;;;;;;5113733;28;20432;-68
2021/12/30 13:50:30;;;;;;;41.30;27.13;;;;;;;;;;5113758;28;20031;-68
2021/12/30 13:53:00;;;;;;;36.72;24.30;;;;;;;;;;5113952;28;20437;-68
2021/12/30 13:55:28;;;;;;;41.42;26.30;;;;;;;;;;5095371;28;20084;-68
2021/12/30 13:58:00;;;;;;;36.92;24.75;;;;;;;;;;5095302;28;20077;-69
2021/12/30 14:00:26;;;;;;;45.40;24.15;;;;;;;;;;5113209;28;20063;-67
2021/12/30 14:03:00;;;;;;;38.17;24.95;;;;;;;;;;5113616;28;20106;-70
2021/12/30 14:05:26;;;;;;;42.72;26.15;;;;;;;;;;5108539;28;20023;-67
2021/12/30 14:07:52;;;;;;;51.20;29.38;;;;;;;;;;5111547;28;20057;-68
2021/12/30 14:10:19;;;;;;;55.80;29.75;;;;;;;;;;5113343;28;20043;-68
2021/12/30 14:12:58;;;;;;;41.13;27.30;;;;;;;;;;5112909;28;20019;-71
2021/12/30 14:15:24;;;;;;;45.35;28.30;;;;;;;;;;5113338;28;20046;-69
2021/12/30 14:18:01;;;;;;;44.25;27.67;;;;;;;;;;5099014;28;20372;-69
2021/12/30 14:20:28;;;;;;;41.63;25.67;;;;;;;;;;5133746;28;20459;-70